createdAt,value
2022-10-29T00:21:43.684Z,19.95
2022-10-29T00:24:10.914Z,20.70
2022-10-29T00:26:37.569Z,20.80
2022-10-29T00:29:04.220Z,21.15
2022-10-29T00:31:31.451Z,21.27
2022-10-29T00:33:58.313Z,22.73
2022-10-29T00:36:28.135Z,20.80
2022-10-29T00:38:55.424Z,21.48
2022-10-29T00:41:26.521Z,19.98
2022-10-29T00:44:15.584Z,20.60
2022-10-29T01:06:51.975Z,18.95
2022-10-29T01:09:18.511Z,21.75
2022-10-29T01:12:09.833Z,20.83
2022-10-29T01:14:51.620Z,21.67
2022-10-29T01:17:30.284Z,22.30
2022-10-29T01:24:18.352Z,21.27
2022-10-29T01:27:10.668Z,22.33
2022-10-29T01:29:55.538Z,22.83
2022-10-29T01:32:43.801Z,23.25
2022-10-29T01:35:29.293Z,23.52
2022-10-29T01:38:34.834Z,21.58
2022-10-29T01:41:14.807Z,21.98
2022-10-29T01:43:48.311Z,24.23
2022-10-29T01:46:39.428Z,23.08
2022-10-29T01:49:12.176Z,22.27
2022-10-29T01:51:40.412Z,21.48
2022-10-29T01:54:09.965Z,22.15
2022-10-29T01:56:36.807Z,22.83
2022-10-29T01:59:14.372Z,23.65
2022-10-29T02:08:03.747Z,21.58
2022-10-29T02:10:39.216Z,22.48
2022-10-29T02:13:08.408Z,23.33
2022-10-29T02:15:39.969Z,22.33
2022-10-29T02:18:25.100Z,21.45
2022-10-29T02:20:51.751Z,20.05
2022-10-29T02:23:18.379Z,21.30
2022-10-29T02:25:46.452Z,20.27
2022-10-29T02:28:13.276Z,21.80
2022-10-29T02:30:39.951Z,21.58
2022-10-29T02:33:06.487Z,20.25
2022-10-29T02:35:33.086Z,20.60
2022-10-29T02:37:59.668Z,18.55
2022-10-29T02:40:26.285Z,19.42
2022-10-29T02:42:53.090Z,17.50
2022-10-29T02:45:19.779Z,18.35
2022-10-29T03:09:56.725Z,18.35
2022-10-29T03:12:23.352Z,19.62
2022-10-29T03:14:49.887Z,18.87
2022-10-29T03:17:16.445Z,19.27
2022-10-29T03:20:08.043Z,18.35
2022-10-29T03:25:10.742Z,18.05
2022-10-29T03:27:44.819Z,17.52
2022-10-29T03:30:16.824Z,19.92
2022-10-29T03:32:45.436Z,18.20
2022-10-29T03:35:14.178Z,18.33
2022-10-29T03:48:32.402Z,18.60
2022-10-29T03:51:05.974Z,19.05
2022-10-29T04:28:42.994Z,19.52
2022-10-29T04:31:12.814Z,19.35
2022-10-29T04:51:49.715Z,21.60
2022-10-29T04:54:16.251Z,20.35
2022-10-29T04:56:42.918Z,20.23
2022-10-29T04:59:09.472Z,21.05
2022-10-29T05:04:07.637Z,20.40
2022-10-29T05:06:34.159Z,20.48
2022-10-29T05:09:00.766Z,21.12
2022-10-29T05:11:27.313Z,21.70
2022-10-29T05:13:53.881Z,23.08
2022-10-29T05:16:20.461Z,22.10
2022-10-29T05:18:47.020Z,20.62
2022-10-29T05:21:13.617Z,20.15
2022-10-29T05:23:40.153Z,20.98
2022-10-29T05:26:06.738Z,20.73
2022-10-29T05:28:33.254Z,19.77
2022-10-29T05:31:04.323Z,19.08
2022-10-29T05:33:30.889Z,19.40
2022-10-29T06:04:21.835Z,29.15
2022-10-29T06:06:48.945Z,27.02
2022-10-29T06:09:15.517Z,20.67
2022-10-29T06:11:42.062Z,17.25
2022-10-29T06:14:08.761Z,16.98
2022-10-29T06:16:35.291Z,17.02
2022-10-29T06:33:27.851Z,16.37
2022-10-29T06:35:59.034Z,17.02
2022-10-29T06:52:01.778Z,16.50
2022-10-29T06:54:28.343Z,16.73
2022-10-29T06:56:54.933Z,17.30
2022-10-29T06:59:23.486Z,17.65
2022-10-29T07:01:50.141Z,17.10
2022-10-29T07:15:45.815Z,18.80
2022-10-29T08:19:35.778Z,21.98
2022-10-29T08:22:02.359Z,22.10
2022-10-29T08:24:28.907Z,22.05
2022-10-29T08:26:57.920Z,22.48
2022-10-29T08:29:24.534Z,21.87
2022-10-29T08:31:51.303Z,22.15
2022-10-29T08:34:17.856Z,19.27
2022-10-29T08:48:27.841Z,17.90
2022-10-29T08:51:03.696Z,18.83
2022-10-29T08:54:17.316Z,20.45
2022-10-29T08:57:04.196Z,22.95
2022-10-29T08:59:35.852Z,21.92
2022-10-29T09:02:02.470Z,23.62
2022-10-29T09:04:34.697Z,23.73
2022-10-29T09:10:39.570Z,22.30
2022-10-29T09:13:18.303Z,23.25
2022-10-29T09:16:11.864Z,22.52
2022-10-29T09:19:11.037Z,22.67
2022-10-29T09:21:52.660Z,22.23
2022-10-29T09:24:38.221Z,21.10
2022-10-29T09:27:34.796Z,21.77
2022-10-29T09:30:15.859Z,20.95
2022-10-29T09:33:01.486Z,21.23
2022-10-29T09:35:38.616Z,21.73
2022-10-29T09:38:22.583Z,22.17
2022-10-29T09:40:49.269Z,20.62
2022-10-29T09:43:28.471Z,21.95
2022-10-29T09:45:58.164Z,19.77
2022-10-29T09:48:36.850Z,21.87
2022-10-29T09:51:06.461Z,21.95
2022-10-29T09:53:33.077Z,22.30
2022-10-29T09:55:59.690Z,23.00
2022-10-29T09:58:28.008Z,23.65
2022-10-29T10:00:57.177Z,24.65
2022-10-29T10:03:30.160Z,23.55
2022-10-29T10:05:59.051Z,24.48
2022-10-29T10:08:26.395Z,23.65
2022-10-29T10:11:19.952Z,24.10
2022-10-29T10:14:00.051Z,22.65
2022-10-29T10:16:33.282Z,23.25
2022-10-29T10:18:59.951Z,24.27
2022-10-29T10:21:32.515Z,24.12
2022-10-29T10:24:00.518Z,24.12
2022-10-29T10:26:43.366Z,21.50
2022-10-29T10:29:18.576Z,20.45
2022-10-29T10:31:47.236Z,22.70
2022-10-29T10:34:22.261Z,21.60
2022-10-29T10:45:43.903Z,21.87
2022-10-29T10:48:11.356Z,20.20
2022-10-29T10:50:38.140Z,20.08
2022-10-29T10:53:17.147Z,21.80
2022-10-29T10:55:50.613Z,20.58
2022-10-29T10:58:20.449Z,19.98
2022-10-29T11:00:54.800Z,21.15
2022-10-29T11:03:30.818Z,22.30
2022-10-29T11:06:06.588Z,20.55
2022-10-29T11:08:35.015Z,21.45
2022-10-29T11:11:10.559Z,21.60
2022-10-29T11:13:41.359Z,20.55
2022-10-29T11:16:13.957Z,21.37
2022-10-29T11:19:12.998Z,20.62
2022-10-29T11:22:05.371Z,22.33
2022-10-29T11:24:47.624Z,21.52
2022-10-29T11:27:40.957Z,21.30
2022-10-29T11:36:21.690Z,23.05
2022-10-29T11:42:17.369Z,22.80
2022-10-29T11:44:43.973Z,22.27
2022-10-29T11:47:18.862Z,22.77
2022-10-29T11:49:51.264Z,23.12
2022-10-29T11:52:55.890Z,23.17
2022-10-29T11:56:00.280Z,21.73
2022-10-29T11:58:49.364Z,21.27
2022-10-29T12:01:31.517Z,20.88
2022-10-29T12:04:14.884Z,22.33
2022-10-29T12:07:45.551Z,22.17
2022-10-29T12:10:49.704Z,21.98
2022-10-29T12:13:42.353Z,23.45
2022-10-29T12:16:24.703Z,23.15
2022-10-29T12:19:01.561Z,23.77
2022-10-29T12:21:46.829Z,23.33
2022-10-29T12:27:47.942Z,22.80
2022-10-29T12:30:17.992Z,22.92
2022-10-29T12:33:05.642Z,21.98
2022-10-29T12:35:39.041Z,22.42
2022-10-29T12:38:11.156Z,22.27
2022-10-29T12:41:17.703Z,20.92
2022-10-29T12:44:21.436Z,22.25
2022-10-29T12:47:16.718Z,20.73
2022-10-29T12:49:55.367Z,22.30
2022-10-29T12:52:46.042Z,26.35
2022-10-29T12:55:19.239Z,24.80
2022-10-29T12:57:45.845Z,21.67
2022-10-29T13:00:24.682Z,20.15
2022-10-29T13:02:52.619Z,19.50
2022-10-29T13:05:38.771Z,17.65
2022-10-29T13:08:05.386Z,19.23
2022-10-29T13:10:54.483Z,17.17
2022-10-29T13:13:34.793Z,17.42
2022-10-29T13:16:21.719Z,18.25
2022-10-29T13:19:16.548Z,15.93
2022-10-29T13:22:52.777Z,17.37
2022-10-29T13:25:46.466Z,18.67
2022-10-29T13:28:16.096Z,17.15
2022-10-29T13:30:44.804Z,16.77
2022-10-29T13:33:26.316Z,16.42
2022-10-29T13:36:04.391Z,17.52
2022-10-29T13:39:04.523Z,17.00
2022-10-29T13:41:44.446Z,17.65
2022-10-29T13:44:17.639Z,16.65
2022-10-29T13:46:49.524Z,16.92
2022-10-29T13:49:18.612Z,17.55
2022-10-29T13:52:14.867Z,16.92
2022-10-29T13:54:55.102Z,16.15
2022-10-29T14:01:02.141Z,15.40
2022-10-29T14:03:41.551Z,17.50
2022-10-29T14:06:20.486Z,16.92
2022-10-29T14:08:55.928Z,15.50
2022-10-29T14:11:38.726Z,15.48
2022-10-29T14:14:48.273Z,16.70
2022-10-29T14:17:17.124Z,16.55
2022-10-29T14:19:48.655Z,16.98
2022-10-29T14:22:36.525Z,16.73
2022-10-29T14:25:49.800Z,16.15
2022-10-29T14:28:44.066Z,17.23
2022-10-29T14:31:19.692Z,19.33
2022-10-29T14:33:59.750Z,20.33
2022-10-29T14:36:35.844Z,17.98
2022-10-29T14:39:32.709Z,16.48
2022-10-29T14:44:57.930Z,15.73
2022-10-29T14:47:32.160Z,20.55
2022-10-29T14:50:03.761Z,17.45
2022-10-29T14:52:38.345Z,17.48
2022-10-29T14:55:47.891Z,16.70
2022-10-29T14:58:35.833Z,17.83
2022-10-29T15:01:12.389Z,18.05
2022-10-29T15:03:39.138Z,25.37
2022-10-29T15:06:19.112Z,23.95
2022-10-29T15:08:54.875Z,23.35
2022-10-29T15:11:35.456Z,27.15
2022-10-29T15:14:38.814Z,22.42
2022-10-29T15:17:11.866Z,20.65
2022-10-29T15:19:43.476Z,21.40
2022-10-29T15:22:11.640Z,23.23
2022-10-29T15:25:18.802Z,20.90
2022-10-29T15:27:59.079Z,19.83
2022-10-29T15:30:43.966Z,19.30
2022-10-29T15:33:17.822Z,17.83
2022-10-29T15:35:54.080Z,17.90
2022-10-29T15:38:35.294Z,18.00
2022-10-29T15:41:19.611Z,19.20
2022-10-29T15:43:56.377Z,21.90
2022-10-29T15:46:59.474Z,19.02
2022-10-29T15:49:31.410Z,20.35
2022-10-29T15:52:00.729Z,19.33
2022-10-29T15:54:52.248Z,19.67
2022-10-29T16:00:47.143Z,20.42
2022-10-29T16:03:27.624Z,20.75
2022-10-29T16:06:00.229Z,19.77
2022-10-29T16:08:49.262Z,21.02
2022-10-29T16:11:22.099Z,20.83
2022-10-29T16:16:23.791Z,20.83
2022-10-29T16:18:51.438Z,20.30
2022-10-29T16:21:23.731Z,20.00
2022-10-29T16:24:02.753Z,22.37
2022-10-29T16:26:49.363Z,22.52
2022-10-29T16:29:16.150Z,19.75
2022-10-29T16:31:43.177Z,20.40
2022-10-29T16:34:13.586Z,21.27
2022-10-29T16:36:40.148Z,19.98
2022-10-29T16:39:06.698Z,19.98
2022-10-29T16:41:42.579Z,23.45
2022-10-29T16:44:09.094Z,21.45
2022-10-29T16:46:35.619Z,22.25
2022-10-29T16:49:02.158Z,21.65
2022-10-29T16:51:34.988Z,21.70
2022-10-29T16:59:47.297Z,25.35
2022-10-29T17:02:13.815Z,26.15
2022-10-29T17:04:40.395Z,26.55
2022-10-29T17:07:07.026Z,25.40
2022-10-29T17:09:35.404Z,24.80
2022-10-29T17:12:14.236Z,27.02
2022-10-29T17:14:40.804Z,26.05
2022-10-29T17:17:07.495Z,28.15
2022-10-29T17:19:34.160Z,28.67
2022-10-29T17:22:24.753Z,28.73
2022-10-29T17:25:22.546Z,30.98
2022-10-29T17:27:58.482Z,29.50
2022-10-29T17:30:25.279Z,29.58
2022-10-29T17:32:51.794Z,29.95
2022-10-29T17:35:18.312Z,32.50
2022-10-29T17:37:44.847Z,31.05
2022-10-29T17:40:11.641Z,30.42
2022-10-29T17:42:38.210Z,32.92
2022-10-29T17:45:05.301Z,32.20
2022-10-29T17:47:31.875Z,32.17
2022-10-29T17:49:58.456Z,30.08
2022-10-29T17:52:25.054Z,30.10
2022-10-29T17:54:57.533Z,31.67
2022-10-29T17:57:45.964Z,31.77
2022-10-29T18:00:32.311Z,33.70
2022-10-29T18:05:26.306Z,34.70
2022-10-29T18:07:52.815Z,33.67
2022-10-29T18:10:19.417Z,34.33
2022-10-29T18:12:45.971Z,103.55
2022-10-29T18:15:24.495Z,52.38
2022-10-29T18:20:22.551Z,34.05
2022-10-29T18:22:51.992Z,33.10
2022-10-29T18:25:22.266Z,31.00
2022-10-29T18:28:08.572Z,33.20
2022-10-29T18:31:06.129Z,31.87
2022-10-29T18:33:32.686Z,32.97
2022-10-29T18:35:59.215Z,32.58
2022-10-29T18:38:30.659Z,32.30
2022-10-29T18:40:58.584Z,32.42
2022-10-29T18:43:26.963Z,33.72
2022-10-29T18:46:06.401Z,34.05
2022-10-29T18:48:37.744Z,33.40
2022-10-29T18:51:10.103Z,32.72
2022-10-29T18:53:40.457Z,33.95
2022-10-29T18:56:32.052Z,32.35
2022-10-29T18:59:32.375Z,32.80
2022-10-29T19:01:59.011Z,30.85
2022-10-29T19:04:25.615Z,30.65
2022-10-29T19:06:53.981Z,31.55
2022-10-29T19:09:20.696Z,33.65
2022-10-29T19:11:53.955Z,32.22
2022-10-29T19:28:08.307Z,32.00
2022-10-29T19:34:11.719Z,33.30
2022-10-29T19:36:40.227Z,34.20
2022-10-29T19:39:07.569Z,34.00
2022-10-29T19:41:34.188Z,36.97
2022-10-29T19:44:04.009Z,34.42
2022-10-29T19:46:39.851Z,35.63
2022-10-29T19:49:30.451Z,34.22
2022-10-29T19:51:57.546Z,33.95
2022-10-29T19:54:24.150Z,32.92
2022-10-29T19:56:50.776Z,34.13
2022-10-29T19:59:17.311Z,33.28
2022-10-29T20:02:14.872Z,35.60
2022-10-29T20:05:00.133Z,33.92
2022-10-29T20:07:26.662Z,35.35
2022-10-29T20:09:53.249Z,35.53
2022-10-29T20:12:19.855Z,36.33
2022-10-29T20:14:46.418Z,34.28
2022-10-29T20:17:13.103Z,34.33
2022-10-29T20:19:39.656Z,35.42
2022-10-29T20:22:06.205Z,35.78
2022-10-29T20:24:32.770Z,36.92
2022-10-29T20:26:59.386Z,34.30
2022-10-29T20:29:41.123Z,34.80
2022-10-29T20:32:07.703Z,36.33
2022-10-29T20:34:58.445Z,37.28
2022-10-29T20:37:49.003Z,36.65
2022-10-29T20:40:24.372Z,37.55
2022-10-29T20:42:53.944Z,36.63
2022-10-29T20:45:20.513Z,35.13
2022-10-29T20:47:47.060Z,37.75
2022-10-29T20:50:13.867Z,36.75
2022-10-29T20:52:45.663Z,35.95
2022-10-29T20:55:20.842Z,35.40
2022-10-29T20:57:47.404Z,35.60
2022-10-29T21:00:14.347Z,36.00
2022-10-29T21:02:59.388Z,36.90
2022-10-29T21:05:59.918Z,36.42
2022-10-29T21:08:52.310Z,35.08
2022-10-29T21:11:20.573Z,36.23
2022-10-29T21:13:47.107Z,36.35
2022-10-29T21:16:32.180Z,35.40
2022-10-29T21:19:00.642Z,35.20
2022-10-29T21:21:29.133Z,37.45
2022-10-29T21:24:08.087Z,35.03
2022-10-29T21:26:34.692Z,33.50
2022-10-29T21:29:01.280Z,34.38
2022-10-29T21:31:33.955Z,32.85
2022-10-29T21:34:27.491Z,33.80
2022-10-29T21:37:21.793Z,32.53
2022-10-29T21:39:48.350Z,32.95
2022-10-29T21:42:14.871Z,33.47
2022-10-29T21:44:41.577Z,31.23
2022-10-29T21:47:08.101Z,32.30
2022-10-29T21:49:34.628Z,32.78
2022-10-29T21:52:01.149Z,33.08
2022-10-29T21:54:43.072Z,33.08
2022-10-29T21:57:09.589Z,32.78
2022-10-29T21:59:36.127Z,32.22
2022-10-29T22:02:02.740Z,33.13
2022-10-29T22:04:47.446Z,32.88
2022-10-29T22:07:29.175Z,33.40
2022-10-29T22:09:55.712Z,34.38
2022-10-29T22:12:22.293Z,31.98
2022-10-29T22:14:48.841Z,31.90
2022-10-29T22:17:15.883Z,30.12
2022-10-29T22:19:42.522Z,33.03
2022-10-29T22:22:17.875Z,31.87
2022-10-29T22:24:44.527Z,31.23
2022-10-29T22:27:11.155Z,29.63
2022-10-29T22:29:37.662Z,29.55
2022-10-29T22:32:08.005Z,29.08
2022-10-29T22:35:24.303Z,29.80
2022-10-29T22:37:54.055Z,29.90
2022-10-29T22:40:21.008Z,28.23
2022-10-29T22:42:47.534Z,27.48
2022-10-29T22:45:14.111Z,28.00
2022-10-29T22:47:40.638Z,27.67
2022-10-29T22:50:07.411Z,26.55
2022-10-29T22:55:07.868Z,27.55
2022-10-29T22:57:34.437Z,26.60
2022-10-29T23:00:00.941Z,27.15
2022-10-29T23:02:39.601Z,29.87
2022-10-29T23:06:08.521Z,29.73
2022-10-29T23:08:35.625Z,30.98
2022-10-29T23:11:19.576Z,31.92
2022-10-29T23:13:47.491Z,32.45
2022-10-29T23:16:14.358Z,30.17
2022-10-29T23:18:41.341Z,31.85
2022-10-29T23:30:23.573Z,31.17
2022-10-29T23:32:52.940Z,29.25
2022-10-29T23:35:23.890Z,30.65
2022-10-29T23:42:00.124Z,29.25
2022-10-29T23:44:26.714Z,28.48
2022-10-29T23:49:34.552Z,29.73
2022-10-29T23:52:05.050Z,27.80
2022-10-29T23:57:06.833Z,27.77
2022-10-29T23:59:33.421Z,28.67
